createdAt,value
2022-09-01T00:00:10.088Z,15.2
2022-09-01T00:05:10.092Z,15.2
2022-09-01T00:10:10.082Z,15.1
2022-09-01T00:15:10.099Z,15
2022-09-01T00:20:10.101Z,14.9
2022-09-01T00:25:10.102Z,14.9
2022-09-01T00:30:10.086Z,14.7
2022-09-01T00:35:10.092Z,14.7
2022-09-01T00:40:10.122Z,14.8
2022-09-01T00:45:10.095Z,15
2022-09-01T00:50:10.096Z,15.1
2022-09-01T00:55:10.090Z,15.1
2022-09-01T01:00:10.096Z,15.1
2022-09-01T01:05:10.567Z,15
2022-09-01T01:10:10.089Z,15.1
2022-09-01T01:15:10.090Z,15.2
2022-09-01T01:20:10.092Z,15.2
2022-09-01T01:25:10.091Z,15.1
2022-09-01T01:30:10.094Z,15.2
2022-09-01T01:35:10.090Z,15.2
2022-09-01T01:40:10.142Z,15.2
2022-09-01T01:45:10.094Z,15.2
2022-09-01T01:50:10.086Z,15.1
2022-09-01T01:55:10.093Z,15
2022-09-01T02:00:10.096Z,15
2022-09-01T02:05:10.098Z,15
2022-09-01T02:10:10.081Z,15
2022-09-01T02:15:10.095Z,14.9
2022-09-01T02:20:10.080Z,14.9
2022-09-01T02:25:10.089Z,14.9
2022-09-01T02:30:10.092Z,14.9
2022-09-01T02:35:10.090Z,14.8
2022-09-01T02:40:10.115Z,14.8
2022-09-01T02:45:10.093Z,14.8
2022-09-01T02:50:10.092Z,14.7
2022-09-01T02:55:10.086Z,14.7
2022-09-01T03:00:10.082Z,14.7
2022-09-01T03:05:10.125Z,14.6
2022-09-01T03:10:10.087Z,14.6
2022-09-01T03:15:10.085Z,14.6
2022-09-01T03:20:10.088Z,14.5
2022-09-01T03:25:10.095Z,14.5
2022-09-01T03:30:10.091Z,14.4
2022-09-01T03:35:10.097Z,14.3
2022-09-01T03:40:10.186Z,14.3
2022-09-01T03:45:10.091Z,14.2
2022-09-01T03:50:10.082Z,14.1
2022-09-01T03:55:10.099Z,14.1
2022-09-01T04:00:10.083Z,14.2
2022-09-01T04:05:10.093Z,14.2
2022-09-01T04:10:10.092Z,14.2
2022-09-01T04:15:10.100Z,14.2
2022-09-01T04:20:10.121Z,14.1
2022-09-01T04:25:10.087Z,14.1
2022-09-01T04:30:10.089Z,14.2
2022-09-01T04:35:10.095Z,14.2
2022-09-01T04:40:10.154Z,14.1
2022-09-01T04:45:11.050Z,14.1
2022-09-01T04:50:10.092Z,14
2022-09-01T04:55:10.097Z,14
2022-09-01T05:00:10.085Z,14
2022-09-01T05:05:10.092Z,14
2022-09-01T05:10:10.103Z,14
2022-09-01T05:15:10.100Z,14
2022-09-01T05:20:10.092Z,14.1
2022-09-01T05:25:10.098Z,14.3
2022-09-01T05:30:10.088Z,14.4
2022-09-01T05:35:10.102Z,14.4
2022-09-01T05:40:12.315Z,14.4
2022-09-01T05:45:10.088Z,14.7
2022-09-01T05:50:14.185Z,14.7
2022-09-01T05:55:10.094Z,15.1
2022-09-01T06:00:10.102Z,15.1
2022-09-01T06:05:10.105Z,15.3
2022-09-01T06:10:10.105Z,15.4
2022-09-01T06:15:10.088Z,15.5
2022-09-01T06:20:10.089Z,15.4
2022-09-01T06:25:10.103Z,15.3
2022-09-01T06:30:10.090Z,15.2
2022-09-01T06:35:10.094Z,15.2
2022-09-01T06:40:10.158Z,15.3
2022-09-01T06:45:10.089Z,15.4
2022-09-01T06:50:10.098Z,15.7
2022-09-01T06:55:10.089Z,16
2022-09-01T07:00:10.093Z,16.1
2022-09-01T07:05:58.831Z,16.1
2022-09-01T07:10:25.639Z,16.2
2022-09-01T07:20:25.723Z,17.1
2022-09-01T07:25:11.637Z,17.1
2022-09-01T07:30:10.086Z,17.6
2022-09-01T07:35:11.729Z,17.7
2022-09-01T07:45:26.007Z,17.8
2022-09-01T07:50:37.319Z,18.1
2022-09-01T07:55:10.096Z,18.1
2022-09-01T08:00:10.088Z,18.1
2022-09-01T08:05:10.093Z,18
2022-09-01T08:10:10.093Z,18.5
2022-09-01T08:15:13.987Z,19
2022-09-01T08:20:10.783Z,19.4
2022-09-01T08:25:10.092Z,19.4
2022-09-01T08:30:10.082Z,19.3
2022-09-01T08:35:10.091Z,19.8
2022-09-01T08:40:10.113Z,19.7
2022-09-01T08:45:10.089Z,19.9
2022-09-01T08:50:10.093Z,19.8
2022-09-01T08:55:10.098Z,20
2022-09-01T09:00:10.094Z,20
2022-09-01T09:05:17.287Z,19.9
2022-09-01T09:10:10.092Z,20
2022-09-01T09:15:10.090Z,19.7
2022-09-01T09:20:10.083Z,19.9
2022-09-01T09:25:10.093Z,20.2
2022-09-01T09:30:11.700Z,20.6
2022-09-01T09:35:10.097Z,20.8
2022-09-01T09:40:10.233Z,20.8
2022-09-01T09:45:10.091Z,21.3
2022-09-01T09:50:10.091Z,21.4
2022-09-01T09:55:10.093Z,21.5
2022-09-01T10:00:10.323Z,21.7
2022-09-01T10:05:10.103Z,21.9
2022-09-01T10:10:10.100Z,21.5
2022-09-01T10:15:14.097Z,21.9
2022-09-01T10:20:11.338Z,21.6
2022-09-01T10:25:10.617Z,21.6
2022-09-01T10:30:13.992Z,21.3
2022-09-01T10:35:10.095Z,21.1
2022-09-01T10:40:10.181Z,21.6
2022-09-01T10:45:10.087Z,21.6
2022-09-01T10:50:10.439Z,21.7
2022-09-01T10:55:10.084Z,21.7
2022-09-01T11:00:34.750Z,21.6
2022-09-01T11:05:10.136Z,21.6
2022-09-01T11:10:11.695Z,21.7
2022-09-01T11:15:10.098Z,21.7
2022-09-01T11:20:10.099Z,22.4
2022-09-01T11:25:11.676Z,22.4
2022-09-01T11:30:10.096Z,22.5
2022-09-01T11:35:10.095Z,22.5
2022-09-01T11:40:10.157Z,22.8
2022-09-01T11:45:10.093Z,22.8
2022-09-01T11:50:10.093Z,22.7
2022-09-01T11:55:10.106Z,22.4
2022-09-01T12:00:10.088Z,22.7
2022-09-01T12:05:10.101Z,22.2
2022-09-01T12:10:10.089Z,22.1
2022-09-01T12:15:10.096Z,22.3
2022-09-01T12:20:10.084Z,22.6
2022-09-01T12:25:10.085Z,22.5
2022-09-01T12:30:10.167Z,22.6
2022-09-01T12:35:11.629Z,22.8
2022-09-01T12:40:10.505Z,22.5
2022-09-01T12:45:10.307Z,22.5
2022-09-01T12:50:10.085Z,22.4
2022-09-01T12:55:10.101Z,22.8
2022-09-01T13:00:10.090Z,23.2
2022-09-01T13:05:10.106Z,22.8
2022-09-01T13:10:10.082Z,23.1
2022-09-01T13:15:10.183Z,23.3
2022-09-01T13:20:10.080Z,23.2
2022-09-01T13:25:10.083Z,23.9
2022-09-01T13:30:10.085Z,23.6
2022-09-01T13:35:10.087Z,23.3
2022-09-01T13:40:10.289Z,23.1
2022-09-01T13:45:10.105Z,22.9
2022-09-01T13:50:11.677Z,23.5
2022-09-01T13:55:10.089Z,23.2
2022-09-01T14:00:10.084Z,23.5
2022-09-01T14:05:10.093Z,23.3
2022-09-01T14:10:10.094Z,23.2
2022-09-01T14:15:11.882Z,23.2
2022-09-01T14:20:10.084Z,23.2
2022-09-01T14:25:10.098Z,23.3
2022-09-01T14:30:10.085Z,23.6
2022-09-01T14:35:10.098Z,23.6
2022-09-01T14:40:10.143Z,23.4
2022-09-01T14:45:10.095Z,23.5
2022-09-01T14:50:10.102Z,23.5
2022-09-01T14:55:10.088Z,23.3
2022-09-01T15:00:10.091Z,23.1
2022-09-01T15:05:10.164Z,22.8
2022-09-01T15:10:10.093Z,22.7
2022-09-01T15:15:10.104Z,22.7
2022-09-01T15:20:10.088Z,22.5
2022-09-01T15:25:10.096Z,22.7
2022-09-01T15:30:10.086Z,22.6
2022-09-01T15:35:10.090Z,22.6
2022-09-01T15:40:10.128Z,22.8
2022-09-01T15:45:10.086Z,22.8
2022-09-01T15:50:10.087Z,22.9
2022-09-01T15:55:10.112Z,22.6
2022-09-01T16:00:10.079Z,22.5
2022-09-01T16:05:10.116Z,22.5
2022-09-01T16:10:10.101Z,22.6
2022-09-01T16:15:10.086Z,22.6
2022-09-01T16:20:10.087Z,22.5
2022-09-01T16:25:10.094Z,22.5
2022-09-01T16:30:10.090Z,22.4
2022-09-01T16:35:10.177Z,22.3
2022-09-01T16:40:10.449Z,22.3
2022-09-01T16:45:10.086Z,22.2
2022-09-01T16:50:10.083Z,22.2
2022-09-01T16:55:10.116Z,21.9
2022-09-01T17:00:10.085Z,21.9
2022-09-01T17:05:10.098Z,21.8
2022-09-01T17:10:10.086Z,21.6
2022-09-01T17:15:10.101Z,21.6
2022-09-01T17:20:10.091Z,21.4
2022-09-01T17:25:10.092Z,21.3
2022-09-01T17:30:10.088Z,21.2
2022-09-01T17:35:10.087Z,21
2022-09-01T17:40:10.119Z,21
2022-09-01T17:45:10.130Z,20.7
2022-09-01T17:50:10.103Z,20.4
2022-09-01T17:55:10.096Z,20.1
2022-09-01T18:00:10.081Z,19.9
2022-09-01T18:05:10.170Z,19.7
2022-09-01T18:10:10.085Z,19.5
2022-09-01T18:15:10.089Z,19.3
2022-09-01T18:20:10.095Z,19.2
2022-09-01T18:25:10.101Z,19
2022-09-01T18:30:10.093Z,18.9
2022-09-01T18:35:10.095Z,18.6
2022-09-01T18:40:10.173Z,18.3
2022-09-01T18:45:10.091Z,17.9
2022-09-01T18:50:10.093Z,17.6
2022-09-01T18:55:10.096Z,17.5
2022-09-01T19:00:17.086Z,17.3
2022-09-01T19:05:10.090Z,17.1
2022-09-01T19:10:10.255Z,16.8
2022-09-01T19:15:11.576Z,16.8
2022-09-01T19:20:10.099Z,16.7
2022-09-01T19:25:10.104Z,16.6
2022-09-01T19:30:10.087Z,16.5
2022-09-01T19:35:10.096Z,16.4
2022-09-01T19:40:10.247Z,16.3
2022-09-01T19:45:10.099Z,16.4
2022-09-01T19:50:10.105Z,16.7
2022-09-01T19:55:10.090Z,16.8
2022-09-01T20:00:10.099Z,16.7
2022-09-01T20:05:10.096Z,16.9
2022-09-01T20:10:10.086Z,17
2022-09-01T20:15:10.098Z,16.8
2022-09-01T20:20:10.091Z,16.7
2022-09-01T20:25:10.101Z,16.6
2022-09-01T20:30:10.091Z,16.5
2022-09-01T20:35:10.117Z,16.5
2022-09-01T20:40:10.152Z,16.4
2022-09-01T20:45:10.107Z,16.4
2022-09-01T20:50:10.096Z,16.3
2022-09-01T20:55:10.091Z,16.2
2022-09-01T21:00:10.104Z,16.2
2022-09-01T21:05:10.093Z,16.1
2022-09-01T21:10:10.092Z,16
2022-09-01T21:15:10.091Z,15.9
2022-09-01T21:20:10.088Z,15.7
2022-09-01T21:25:10.087Z,15.5
2022-09-01T21:30:10.087Z,15.5
2022-09-01T21:35:10.099Z,15.4
2022-09-01T21:40:10.128Z,15.3
2022-09-01T21:45:10.092Z,15.2
2022-09-01T21:50:10.095Z,15.1
2022-09-01T21:55:10.138Z,15
2022-09-01T22:00:10.093Z,14.9
2022-09-01T22:05:10.095Z,14.9
2022-09-01T22:10:10.083Z,14.8
2022-09-01T22:15:10.088Z,14.7
2022-09-01T22:20:10.085Z,14.7
2022-09-01T22:25:10.093Z,14.7
2022-09-01T22:30:10.097Z,14.9
2022-09-01T22:35:10.090Z,15
2022-09-01T22:40:10.135Z,15
2022-09-01T22:45:10.099Z,14.9
2022-09-01T22:50:10.088Z,14.9
2022-09-01T22:55:10.106Z,14.9
2022-09-01T23:00:10.095Z,14.8
2022-09-01T23:05:10.086Z,14.8
2022-09-01T23:10:10.094Z,14.7
2022-09-01T23:15:10.098Z,14.7
2022-09-01T23:20:10.093Z,14.6
2022-09-01T23:25:10.116Z,14.6
2022-09-01T23:30:10.104Z,14.6
2022-09-01T23:35:10.123Z,14.7
2022-09-01T23:40:10.176Z,14.7
2022-09-01T23:45:10.108Z,14.6
2022-09-01T23:50:10.101Z,14.4
2022-09-01T23:55:10.111Z,14.4
